Terminal Aerodrome Forecast
Issued by NWS Flagstaff, AZ

Current Version | Previous Version | Text Only | Print | Product List | Glossary On
Versions: 1 2 3 4 5 6 7 8 9 10 11 12 13 14 15 16 17 18 19 20 21 22 23 24 25 26
000
FTUS45 KFGZ 221900 AAA
TAFFLG
TAF AMD
KFLG 221922Z 2219/2318 22009KT P6SM SCT030 BKN070
      TEMPO 2219/2223 -SHRA BKN030
     FM230200 VRB03KT P6SM SCT030=

USA.gov is the U.S. government's official web portal to all federal, state and local government web resources and services.